Es ist keine erhöhte Aufmerksamkeit aufgrund des Wetters notwendig.    Es gibt keine Warnungen.
Webcam Vorhersage DWD Regenradar Wetterlage NRW Blitze Wind GFS-Modell
webcam


Kleve - Düffelward SSO more information Kleve - Düffelward SSO


Goch more information Goch


Weitere Templates dieser Seite und andere Webseiten:

Meteotemplate

Awekas - Template

weather34 - Template

Wetter im Erzgebirge


te
World Weather Websites
Bo-Rox Wetter Topsites List
 

METAR-Meldungen aus der Umgebung

   
EDLV - Goch
Aktualisierung: 18-06-2019 20:50
Klar  
Klar  
   Wind: variiert 3.7 km/h
Wind: variiert 3.7 km/h
Temperatur: 26°C
Taupunkt: 15°C
Luftfeuchte: 51%
Luftdruck: 1011 hPa
Sichtbarkeit: More than 10 km
Bewölkung: Klar
EDLV 181850Z VRB02KT CAVOK 26/15 Q1011
EDLV - Emmerich
Aktualisierung: 18-06-2019 20:50
Klar  
Klar  
   Wind: variiert 3.7 km/h
Wind: variiert 3.7 km/h
Temperatur: 26°C
Taupunkt: 15°C
Luftfeuchte: 51%
Luftdruck: 1011 hPa
Sichtbarkeit: More than 10 km
Bewölkung: Klar
EDLV 181850Z VRB02KT CAVOK 26/15 Q1011
EHDL - Nijmegen
Aktualisierung: 18-06-2019 20:55
Teilweise bewölkt  
Teilweise bewölkt  
   Wind: Norden 14.8 km/h
Wind: Norden 14.8 km/h
Temperatur: 24°C
Taupunkt: 15°C
Luftfeuchte: 57%
Luftdruck: 1011 hPa
Bewölkt: Teilweise bewölkt
Sichtbarkeit: More than 10 km
Bewölkung: Teilweise bewölkt 14000 ft
EHDL 181855Z AUTO 01008KT 330V050 9999 SCT140 24/15 Q1011 BLU
EHDL - Arnhem
Aktualisierung: 18-06-2019 20:55
Teilweise bewölkt  
Teilweise bewölkt  
   Wind: Norden 14.8 km/h
Wind: Norden 14.8 km/h
Temperatur: 24°C
Taupunkt: 15°C
Luftfeuchte: 57%
Luftdruck: 1011 hPa
Bewölkt: Teilweise bewölkt
Sichtbarkeit: More than 10 km
Bewölkung: Teilweise bewölkt 14000 ft
EHDL 181855Z AUTO 01008KT 330V050 9999 SCT140 24/15 Q1011 BLU
EDLV - Kalkar
Aktualisierung: 18-06-2019 20:50
Klar  
Klar  
   Wind: variiert 3.7 km/h
Wind: variiert 3.7 km/h
Temperatur: 26°C
Taupunkt: 15°C
Luftfeuchte: 51%
Luftdruck: 1011 hPa
Sichtbarkeit: More than 10 km
Bewölkung: Klar
EDLV 181850Z VRB02KT CAVOK 26/15 Q1011
 

Script entwickelt von  Saratoga-weather.org Angepasst für das Template von  Weerstation Leuven

Sie finden Wetter-Infos dieser Station auch auf:

UK Metoffice

European Weather Network

WeatherCloud

Weather Underground

Germany Weather Network

AWEKAS

Neuwetter

Wettersektor

Von uns verwendete Ausrüstung:

Wetterstation
Davis Vantage Pro2

Wetterprogramm
Meteobridge

WetterComputer
Computer

Davis Vantage Pro2

Meteobridge

Computer